Terminal Aerodrome Forecast
Issued by NWS

Home | Current Version | Previous Version | Text Only | Print | Product List | Glossary On
Versions: 1 2 3 4 5 6 7 8 9 10 11 12 13 14 15 16 17 18 19
000
FTUS45 KABQ 051100
TAFLVS
TAF
KLVS 051122Z 0512/0612 22005KT 1 1/2SM BR BKN006
      TEMPO 0512/0514 1/2SM FZFG VV002
     FM051500 19008KT P6SM SCT012
     FM051900 19014G22KT P6SM FEW060
     FM060200 VRB05KT P6SM SKC=

USA.gov is the U.S. government's official web portal to all federal, state and local government web resources and services.